Terminal Aerodrome Forecast
Issued by NWS Lake Charles, LA

Home | Current Version | Previous Version | Text Only | Print | Product List | Glossary On
Versions: 1 2 3 4 5 6 7 8 9 10 11 12 13 14 15 16 17 18 19 20 21 22 23 24 25 26
831
FTUS44 KLCH 201730
TAFBPT
TAF
KBPT 201730Z 2018/2118 15022G28KT P6SM VCSH SCT015 BKN035 OVC080
     FM210000 15013KT P6SM VCSH OVC025
     FM210300 14013KT 5SM BR VCSH OVC009
     FM210600 14013KT 3SM BR VCSH OVC004
     FM211200 14010KT 3SM -SHRA BR OVC004
     FM211500 15013G20KT 3SM -SHRA BR OVC004=

USA.gov is the U.S. government's official web portal to all federal, state and local government web resources and services.